Ruby, SC

12:23 AM EDT on September 20, 2014 (GMT -0400)
White Rock Dairy | Change Station
CLOSE
Current Station
Personal Weather Station
Location: Peachland, NC
Elevation: 469 ft
Nearby Weather Stations

Elev 469 ft 34.81 °N, 80.24 °W | Updated 14 minutes ago

Clear
Clear
64.2 °F
Feels Like 64.2 °F
N
2.7
Wind Variable Wind from SW

Today
High -- | Low -- °F
--% Chance of Precip.
Yesterday
High -- | Low -- °F
Precip. -- in
7:07 AM 7:20 PM
Waning Crescent, 15% visible
Pressure 30.19 in
Visibility 10.0 miles
Clouds Clear
Dew Point 64 °F
Humidity 98%
Rainfall -9999.00 in
Snow Depth Not available.
UV 0 out of 12
Pollen 7.50 out of 12
Ozone Good
PM2.5 Good
Flu Activity Not available.
METAR KHVS 200415Z AUTO 05008KT 10SM CLR 21/10 A3019 RMK AO2

More Conditions Fewer Conditions

Pressure 30.19 in
Visibility 10.0 miles
Clouds Clear
Dew Point 64 °F
Humidity 98%
Rainfall -9999.00 in
Snow Depth Not available.
UV 0 out of 12
Pollen 7.50 out of 12
Ozone Good
PM2.5 Good
Flu Activity Not available.
METAR KHVS 200415Z AUTO 05008KT 10SM CLR 21/10 A3019 RMK AO2

More Conditions Fewer Conditions

10-Day Weather Forecast

Almanac

Astronomy

Sep. 20, 2014 Rise Set
Actual Time 7:07 AM EDT 7:20 PM EDT
Civil Twilight 6:42 AM EDT 7:45 PM EDT
Nautical Twilight 6:12 AM EDT 8:15 PM EDT
Astronomical Twilight 5:42 AM EDT 8:44 PM EDT
Moon 3:51 AM EDT 5:17 PM EDT
Length of Visible Light 13h 03m
Length of Day
12h 13m
Tomorrow will be 2m 9s shorter.
Waning Crescent, 15% of the Moon is Illuminated
Today
Waning Crescent
Sep 24
New
Oct 1
First Quarter
Oct 8
Full
Oct 15
Last Quarter

Yesterday's Extremes

State Highs State Lows

Community

WunderPhotos

Upload Photos

1,754,777 photos uploaded!

WunderBlogs® & News

Nearby

Air Quality

  Air Quality AQ Index Pollutant
Current Good
PM2.5
Current Good
OZONE
Friday Good
OZONE
Saturday Good
OZONE

Snow Depth

Station Depth Elevation
No new snow has been reported.

Earthquake Activity

City Distance Mag. Time & Date
New Ellenton, South Carolina 122 miles 2.6 4:38 PM EDT
2014-09-19
Minimum magnitude displayed is 2.5.

Coastal Water Temperatures

Place Temperature
No Stations Reporting

Nearby Weather Stations